CFSYF CZBM-CZBM
Flight info
| Callsign | CFSYF |
|---|---|
| Flight time | N/A |
| Altitude | 5000 |
| Route | VOL LOCAL |
| Aircraft | PA34/L-SDFGRY/S |
Departure
| Time | 2026-05-04 23:47 |
|---|---|
| Airport | Bromont (Roland Désourdy) Airport (CZBM) |
Arrival
| Time | N/A |
|---|---|
| Airport | Bromont (Roland Désourdy) Airport (CZBM) |
| Time | Latitude | Longitude | Altitude | Speed | Heading |
|---|---|---|---|---|---|
| 2026-05-04 23:37 | 45.29544 | -72.73361 | 380 ft | 0 kts | 184° |
| 2026-05-04 23:40 | 45.29542 | -72.73360 | 380 ft | 2 kts | 159° |
| 2026-05-04 23:40 | 45.29570 | -72.73353 | 380 ft | 9 kts | 296° |
| 2026-05-04 23:41 | 45.29586 | -72.73381 | 381 ft | 0 kts | 20° |
| 2026-05-04 23:44 | 45.29594 | -72.73418 | 381 ft | 0 kts | 272° |
| 2026-05-04 23:44 | 45.29594 | -72.73432 | 382 ft | 9 kts | 266° |
| 2026-05-04 23:45 | 45.29612 | -72.73552 | 380 ft | 14 kts | 292° |
| 2026-05-04 23:45 | 45.29576 | -72.73673 | 380 ft | 15 kts | 220° |
| 2026-05-04 23:45 | 45.29453 | -72.73809 | 373 ft | 33 kts | 217° |
| 2026-05-04 23:45 | 45.29240 | -72.74041 | 366 ft | 39 kts | 218° |
| 2026-05-04 23:46 | 45.29032 | -72.74263 | 363 ft | 36 kts | 217° |
| 2026-05-04 23:46 | 45.28847 | -72.74466 | 365 ft | 33 kts | 218° |
| 2026-05-04 23:46 | 45.28675 | -72.74651 | 359 ft | 28 kts | 220° |
| 2026-05-04 23:46 | 45.28584 | -72.74784 | 355 ft | 14 kts | 200° |
| 2026-05-04 23:47 | 45.28677 | -72.74649 | 359 ft | 56 kts | 37° |
| 2026-05-04 23:47 | 45.29177 | -72.74107 | 476 ft | 110 kts | 39° |
| 2026-05-04 23:47 | 45.29800 | -72.73397 | 903 ft | 123 kts | 39° |
| 2026-05-04 23:47 | 45.30506 | -72.72610 | 1261 ft | 127 kts | 37° |
| 2026-05-04 23:48 | 45.31356 | -72.72318 | 1351 ft | 133 kts | 352° |
| 2026-05-04 23:48 | 45.32108 | -72.73036 | 1346 ft | 138 kts | 299° |
| 2026-05-04 23:48 | 45.32122 | -72.74314 | 1373 ft | 130 kts | 238° |
| 2026-05-04 23:48 | 45.31514 | -72.75234 | 1409 ft | 126 kts | 220° |
| 2026-05-04 23:49 | 45.31307 | -72.75511 | 1426 ft | 127 kts | 221° |
| 2026-05-04 23:49 | 45.30174 | -72.76902 | 1434 ft | 130 kts | 217° |
| 2026-05-04 23:49 | 45.29457 | -72.77687 | 1396 ft | 133 kts | 215° |
| 2026-05-04 23:49 | 45.28743 | -72.78443 | 1231 ft | 125 kts | 216° |
| 2026-05-04 23:50 | 45.27982 | -72.78871 | 1293 ft | 118 kts | 178° |
| 2026-05-04 23:50 | 45.27232 | -72.78343 | 1259 ft | 123 kts | 141° |
| 2026-05-04 23:50 | 45.26777 | -72.77329 | 1225 ft | 124 kts | 105° |
| 2026-05-04 23:50 | 45.27069 | -72.76224 | 957 ft | 134 kts | 35° |
| 2026-05-04 23:51 | 45.27858 | -72.75525 | 590 ft | 134 kts | 36° |
| 2026-05-04 23:51 | 45.28577 | -72.74760 | 378 ft | 117 kts | 38° |
| 2026-05-04 23:51 | 45.29115 | -72.74181 | 364 ft | 94 kts | 41° |
| 2026-05-04 23:51 | 45.29732 | -72.73504 | 616 ft | 119 kts | 38° |
| 2026-05-04 23:52 | 45.30409 | -72.72759 | 1093 ft | 127 kts | 40° |